Terminal Aerodrome Forecast
Issued by NWS

Home | Current Version | Previous Version | Text Only | Print | Product List | Glossary On
Versions: 1 2 3 4 5 6 7 8 9 10 11 12 13 14 15 16 17 18 19 20 21 22 23 24 25
000
FTUS45 KFGZ 310525
TAFPGA
TAF
KPGA 310525Z 3106/0106 20008KT P6SM SCT110
     FM311800 16011G21KT P6SM SKC
     FM312100 19014G24KT P6SM SCT050
     FM010200 20008KT P6SM SCT110=

USA.gov is the U.S. government's official web portal to all federal, state and local government web resources and services.